Terminal Aerodrome Forecast
Issued by NWS Wakefield, VA

Home | Current Version | Previous Version | Text Only | Print | Product List | Glossary On
Versions: 1 2 3 4 5 6 7 8 9 10 11 12 13 14 15 16 17 18 19 20 21 22 23 24 25 26 27
154
FTUS41 KAKQ 220235 AAB
TAFSBY
TAF AMD
KSBY 220235Z 2203/2224 12003KT P6SM SCT003 OVC015
      TEMPO 2203/2205 2SM BR OVC003
     FM220500 VRB03KT 1SM BR VCSH OVC002
     FM221100 03006KT 1/2SM FG OVC001
     FM221300 03007KT 2SM BR OVC007
     FM221500 04006KT P6SM OVC020=

USA.gov is the U.S. government's official web portal to all federal, state and local government web resources and services.